createdAt,value
2018-08-23T00:01:47.072Z,24.77
2018-08-23T00:04:16.005Z,24.00
2018-08-23T00:06:49.994Z,26.50
2018-08-23T00:09:18.918Z,27.23
2018-08-23T00:11:47.947Z,24.20
2018-08-23T00:14:17.484Z,23.00
2018-08-23T00:16:49.447Z,21.33
2018-08-23T00:19:18.305Z,22.73
2018-08-23T00:21:50.759Z,20.77
2018-08-23T00:24:20.771Z,23.77
2018-08-23T00:26:54.372Z,24.33
2018-08-23T00:29:32.637Z,20.23
2018-08-23T00:32:05.693Z,22.30
2018-08-23T00:34:38.872Z,20.40
2018-08-23T00:37:08.446Z,20.60
2018-08-23T00:39:37.352Z,22.10
2018-08-23T00:42:07.576Z,22.47
2018-08-23T00:44:59.261Z,22.23
2018-08-23T00:47:29.970Z,24.63
2018-08-23T00:49:58.920Z,22.83
2018-08-23T00:52:58.819Z,25.27
2018-08-23T00:55:29.163Z,27.23
2018-08-23T00:57:58.065Z,24.03
2018-08-23T01:00:28.081Z,26.97
2018-08-23T01:03:04.906Z,24.47
2018-08-23T01:05:37.702Z,27.13
2018-08-23T01:08:07.550Z,27.63
2018-08-23T01:10:38.841Z,27.03
2018-08-23T01:13:07.819Z,25.80
2018-08-23T01:15:36.694Z,22.07
2018-08-23T01:18:19.369Z,23.63
2018-08-23T01:20:49.768Z,22.90
2018-08-23T01:23:18.708Z,24.63
2018-08-23T01:25:48.233Z,23.97
2018-08-23T01:28:17.126Z,23.90
2018-08-23T01:30:46.867Z,21.77
2018-08-23T01:33:16.990Z,21.87
2018-08-23T01:35:47.121Z,23.23
2018-08-23T01:38:16.640Z,26.10
2018-08-23T01:40:45.627Z,22.82
2018-08-23T01:43:14.618Z,20.57
2018-08-23T01:45:43.506Z,21.30
2018-08-23T01:48:12.487Z,23.97
2018-08-23T01:50:41.432Z,23.98
2018-08-23T01:53:10.307Z,23.57
2018-08-23T01:55:39.229Z,24.60
2018-08-23T01:58:08.093Z,27.90
2018-08-23T02:00:37.004Z,26.13
2018-08-23T02:03:05.943Z,25.73
2018-08-23T02:05:37.795Z,26.30
2018-08-23T02:08:07.527Z,24.33
2018-08-23T02:10:36.507Z,26.60
2018-08-23T02:13:10.108Z,26.48
2018-08-23T02:15:51.088Z,22.20
2018-08-23T02:18:19.983Z,25.27
2018-08-23T02:20:51.517Z,19.70
2018-08-23T02:23:20.417Z,21.43
2018-08-23T02:25:49.322Z,20.03
2018-08-23T02:28:18.208Z,19.63
2018-08-23T02:30:57.441Z,17.90
2018-08-23T02:33:27.078Z,20.20
2018-08-23T02:36:20.402Z,23.35
2018-08-23T02:38:51.991Z,24.67
2018-08-23T02:41:20.898Z,20.63
2018-08-23T02:43:49.917Z,21.97
2018-08-23T02:46:18.794Z,25.30
2018-08-23T02:48:47.724Z,23.83
2018-08-23T02:51:16.544Z,27.03
2018-08-23T02:53:48.954Z,25.70
2018-08-23T02:56:21.539Z,26.03
2018-08-23T02:59:06.264Z,25.20
2018-08-23T03:01:38.203Z,23.63
2018-08-23T03:04:17.083Z,25.00
2018-08-23T03:06:56.112Z,21.67
2018-08-23T03:09:28.036Z,20.43
2018-08-23T03:11:58.155Z,21.40
2018-08-23T03:14:27.935Z,20.90
2018-08-23T03:17:29.703Z,22.90
2018-08-23T03:20:20.651Z,25.85
2018-08-23T03:22:50.903Z,23.93
2018-08-23T03:25:24.198Z,29.07
2018-08-23T03:27:53.595Z,26.53
2018-08-23T03:30:23.131Z,27.30
2018-08-23T03:32:52.010Z,24.07
2018-08-23T03:35:20.984Z,26.97
2018-08-23T03:37:52.364Z,25.23
2018-08-23T03:40:21.289Z,25.23
2018-08-23T03:42:52.498Z,29.55
2018-08-23T03:45:30.274Z,28.10
2018-08-23T03:47:59.148Z,28.73
2018-08-23T03:50:28.144Z,29.27
2018-08-23T03:52:57.064Z,27.57
2018-08-23T03:55:26.479Z,26.53
2018-08-23T03:58:01.254Z,28.43
2018-08-23T04:00:48.065Z,30.70
2018-08-23T04:03:20.004Z,27.53
2018-08-23T04:05:48.951Z,33.07
2018-08-23T04:08:17.826Z,31.50
2018-08-23T04:10:48.924Z,36.17
2018-08-23T04:13:17.791Z,28.30
2018-08-23T04:15:46.654Z,32.80
2018-08-23T04:18:17.151Z,32.00
2018-08-23T04:20:59.472Z,31.53
2018-08-23T04:23:28.403Z,32.03
2018-08-23T04:25:59.052Z,33.23
2018-08-23T04:28:26.349Z,31.97
2018-08-23T04:30:59.446Z,35.80
2018-08-23T04:33:26.171Z,33.53
2018-08-23T04:35:55.068Z,30.00
2018-08-23T04:38:24.067Z,28.57
2018-08-23T04:41:05.762Z,33.77
2018-08-23T04:43:34.774Z,36.47
2018-08-23T04:46:03.628Z,34.40
2018-08-23T04:48:32.541Z,34.45
2018-08-23T04:51:01.523Z,31.23
2018-08-23T04:53:30.468Z,34.77
2018-08-23T04:55:59.399Z,30.57
2018-08-23T04:58:30.910Z,30.60
2018-08-23T05:00:59.837Z,30.73
2018-08-23T05:03:28.849Z,32.20
2018-08-23T05:05:57.879Z,30.17
2018-08-23T05:08:26.700Z,33.30
2018-08-23T05:10:55.698Z,28.50
2018-08-23T05:13:24.566Z,38.53
2018-08-23T05:15:53.478Z,41.53
2018-08-23T05:18:22.346Z,46.77
2018-08-23T05:20:51.291Z,52.80
2018-08-23T05:23:20.281Z,54.30
2018-08-23T05:25:49.091Z,52.10
2018-08-23T05:28:19.188Z,48.87
2018-08-23T05:30:49.066Z,43.10
2018-08-23T05:33:23.765Z,58.10
2018-08-23T05:35:52.626Z,59.30
2018-08-23T05:38:21.540Z,59.13
2018-08-23T05:40:54.849Z,57.53
2018-08-23T05:43:24.321Z,54.17
2018-08-23T05:45:54.593Z,61.07
2018-08-23T05:48:40.623Z,59.77
2018-08-23T05:51:10.883Z,56.63
2018-08-23T05:53:51.390Z,54.57
2018-08-23T05:56:20.524Z,64.87
2018-08-23T05:58:49.428Z,63.27
2018-08-23T06:01:18.350Z,62.60
2018-08-23T06:03:47.294Z,61.57
2018-08-23T06:06:16.303Z,61.30
2018-08-23T06:08:56.116Z,63.40
2018-08-23T06:11:25.094Z,63.73
2018-08-23T06:13:53.954Z,68.27
2018-08-23T06:16:22.882Z,63.47
2018-08-23T06:18:51.783Z,68.27
2018-08-23T06:21:20.700Z,66.93
2018-08-23T06:23:52.403Z,68.30
2018-08-23T06:26:33.404Z,69.13
2018-08-23T06:29:02.303Z,81.70
2018-08-23T06:31:31.187Z,76.87
2018-08-23T06:34:00.158Z,73.73
2018-08-23T06:36:29.939Z,77.43
2018-08-23T06:39:02.030Z,74.63
2018-08-23T06:41:30.966Z,77.40
2018-08-23T06:43:59.913Z,77.70
2018-08-23T06:46:28.799Z,83.20
2018-08-23T06:49:00.291Z,85.43
2018-08-23T06:51:26.675Z,85.60
2018-08-23T06:54:01.219Z,85.03
2018-08-23T06:56:30.588Z,93.78
2018-08-23T06:58:59.555Z,91.03
2018-08-23T07:01:47.829Z,82.90
2018-08-23T07:04:16.751Z,85.83
2018-08-23T07:06:45.711Z,83.13
2018-08-23T07:09:15.849Z,92.20
2018-08-23T07:11:45.190Z,88.83
2018-08-23T07:14:15.240Z,96.20
2018-08-23T07:16:45.588Z,94.03
2018-08-23T07:19:31.900Z,87.80
2018-08-23T07:22:02.705Z,94.37
2018-08-23T07:24:44.339Z,97.72
2018-08-23T07:27:17.517Z,91.30
2018-08-23T07:29:47.782Z,85.80
2018-08-23T07:32:23.571Z,81.13
2018-08-23T07:35:11.188Z,84.57
2018-08-23T07:37:41.447Z,89.40
2018-08-23T07:40:11.645Z,85.13
2018-08-23T07:42:41.878Z,90.70
2018-08-23T07:45:11.263Z,85.37
2018-08-23T07:47:50.525Z,81.77
2018-08-23T07:50:19.461Z,90.50
2018-08-23T07:52:52.557Z,94.75
2018-08-23T07:55:21.457Z,88.65
2018-08-23T07:57:54.955Z,92.43
2018-08-23T08:00:47.391Z,80.47
2018-08-23T08:03:21.968Z,79.37
2018-08-23T08:06:15.088Z,79.80
2018-08-23T08:08:25.659Z,78.17
2018-08-23T08:11:03.103Z,79.77
2018-08-23T08:13:37.225Z,78.10
2018-08-23T08:16:20.952Z,84.70
2018-08-23T08:18:55.932Z,82.87
2018-08-23T08:21:38.019Z,81.17
2018-08-23T08:27:30.748Z,77.67
2018-08-23T08:29:59.664Z,69.80
2018-08-23T08:32:28.531Z,71.37
2018-08-23T08:34:59.615Z,69.37
2018-08-23T08:37:27.314Z,58.33
2018-08-23T08:39:56.470Z,60.10
2018-08-23T08:42:32.774Z,54.10
2018-08-23T08:45:11.749Z,53.73
2018-08-23T08:47:41.797Z,50.90
2018-08-23T08:50:10.658Z,54.20
2018-08-23T08:52:39.545Z,50.83
2018-08-23T08:55:09.398Z,46.63
2018-08-23T08:57:45.573Z,45.67
2018-08-23T09:00:17.969Z,48.90
2018-08-23T09:02:50.243Z,43.60
2018-08-23T09:05:17.045Z,46.00
2018-08-23T09:07:52.907Z,46.02
2018-08-23T09:10:20.703Z,43.90
2018-08-23T09:12:49.679Z,41.60
2018-08-23T09:15:18.639Z,42.00
2018-08-23T09:17:47.546Z,42.17
2018-08-23T09:20:17.601Z,40.55
2018-08-23T09:22:50.899Z,39.78
2018-08-23T09:25:28.144Z,35.83
2018-08-23T09:27:57.005Z,33.63
2018-08-23T09:30:26.746Z,41.23
2018-08-23T09:32:55.964Z,42.23
2018-08-23T09:35:29.927Z,41.20
2018-08-23T09:38:00.141Z,48.02
2018-08-23T09:40:29.463Z,42.73
2018-08-23T09:43:02.196Z,42.93
2018-08-23T09:45:32.622Z,36.90
2018-08-23T09:48:04.596Z,40.60
2018-08-23T09:50:33.847Z,45.15
2018-08-23T09:53:09.109Z,46.25
2018-08-23T09:55:35.619Z,41.53
2018-08-23T09:58:04.497Z,45.23
2018-08-23T10:00:51.396Z,41.70
2018-08-23T10:03:37.840Z,41.18
2018-08-23T10:06:21.913Z,40.92
2018-08-23T10:09:17.604Z,43.15
2018-08-23T10:12:04.027Z,47.13
2018-08-23T10:14:50.920Z,44.73
2018-08-23T10:17:37.358Z,37.33
2018-08-23T10:20:25.671Z,43.92
2018-08-23T10:23:15.494Z,43.17
2018-08-23T10:25:51.820Z,39.65
2018-08-23T10:28:22.298Z,38.48
2018-08-23T10:30:52.380Z,35.78
2018-08-23T10:33:22.625Z,41.63
2018-08-23T10:36:05.473Z,42.40
2018-08-23T10:38:43.285Z,39.88
2018-08-23T10:41:20.648Z,39.73
2018-08-23T10:43:53.864Z,38.28
2018-08-23T10:46:27.640Z,37.78
2018-08-23T10:48:59.712Z,37.90
2018-08-23T10:51:32.445Z,35.70
2018-08-23T10:54:10.744Z,34.95
2018-08-23T10:56:40.196Z,31.45
2018-08-23T10:59:09.462Z,30.37
2018-08-23T11:01:38.231Z,28.55
2018-08-23T11:04:10.806Z,30.15
2018-08-23T11:06:57.173Z,26.02
2018-08-23T11:09:44.203Z,27.20
2018-08-23T11:12:30.755Z,24.90
2018-08-23T11:15:18.760Z,27.05
2018-08-23T11:18:15.439Z,25.82
2018-08-23T11:20:50.540Z,26.37
2018-08-23T11:23:26.721Z,29.02
2018-08-23T11:25:59.877Z,25.12
2018-08-23T11:28:28.700Z,26.75
2018-08-23T11:31:04.224Z,29.65
2018-08-23T11:33:36.060Z,28.67
2018-08-23T11:36:08.603Z,26.87
2018-08-23T11:38:37.585Z,28.35
2018-08-23T11:41:06.493Z,30.90
2018-08-23T11:43:35.482Z,26.87
2018-08-23T11:46:17.092Z,24.45
2018-08-23T11:48:45.383Z,28.92
2018-08-23T11:51:15.210Z,30.85
2018-08-23T11:53:44.781Z,28.38
2018-08-23T11:56:13.578Z,28.87
2018-08-23T11:58:43.008Z,27.17
2018-08-23T12:01:13.061Z,28.20
2018-08-23T12:03:42.338Z,27.32
2018-08-23T12:06:13.275Z,28.02
2018-08-23T12:08:42.599Z,27.98
2018-08-23T12:11:11.565Z,28.52
2018-08-23T12:13:44.925Z,28.38
2018-08-23T12:16:13.796Z,25.80
2018-08-23T12:18:44.735Z,24.02
2018-08-23T12:21:13.619Z,23.20
2018-08-23T12:23:42.550Z,22.75
2018-08-23T12:26:11.670Z,23.32
2018-08-23T12:28:58.440Z,25.50
2018-08-23T12:31:27.336Z,24.35
2018-08-23T12:34:05.089Z,21.82
2018-08-23T12:36:50.004Z,23.20
2018-08-23T12:39:37.162Z,22.30
2018-08-23T12:42:23.986Z,26.30
2018-08-23T12:44:52.941Z,27.40
2018-08-23T12:47:22.011Z,24.52
2018-08-23T12:49:51.092Z,24.32
2018-08-23T12:52:22.900Z,23.15
2018-08-23T12:54:51.815Z,20.48
2018-08-23T12:57:20.652Z,18.98
2018-08-23T12:59:49.646Z,21.30
2018-08-23T13:02:18.621Z,18.73
2018-08-23T13:04:47.425Z,19.62
2018-08-23T13:07:16.345Z,16.02
2018-08-23T13:09:45.685Z,15.95
2018-08-23T13:12:15.042Z,19.95
2018-08-23T13:14:43.890Z,17.42
2018-08-23T13:17:13.153Z,19.50
2018-08-23T13:19:43.384Z,18.40
2018-08-23T13:22:12.271Z,19.32
2018-08-23T13:25:00.253Z,18.27
2018-08-23T13:27:33.565Z,16.07
2018-08-23T13:30:03.640Z,16.85
2018-08-23T13:32:32.772Z,18.32
2018-08-23T13:35:07.121Z,19.00
2018-08-23T13:37:36.071Z,19.17
2018-08-23T13:40:05.881Z,16.75
2018-08-23T13:42:59.108Z,15.98
2018-08-23T13:45:21.895Z,13.55
2018-08-23T13:47:50.679Z,12.07
2018-08-23T13:50:19.595Z,12.43
2018-08-23T13:52:48.653Z,12.88
2018-08-23T13:55:17.506Z,14.93
2018-08-23T13:57:46.372Z,19.62
2018-08-23T14:00:32.999Z,16.73
2018-08-23T14:03:01.968Z,17.77
2018-08-23T14:05:30.836Z,17.48
2018-08-23T14:07:59.729Z,19.35
2018-08-23T14:10:28.618Z,15.63
2018-08-23T14:12:57.654Z,19.30
2018-08-23T14:15:44.440Z,17.75
2018-08-23T14:18:15.013Z,18.17
2018-08-23T14:20:42.316Z,15.28
2018-08-23T14:23:13.345Z,17.77
2018-08-23T14:25:42.194Z,16.02
2018-08-23T14:28:11.092Z,16.27
2018-08-23T14:30:40.031Z,14.35
2018-08-23T14:33:09.072Z,17.73
2018-08-23T14:35:38.745Z,17.77
2018-08-23T14:38:11.216Z,17.70
2018-08-23T14:40:40.188Z,19.92
2018-08-23T14:43:09.492Z,19.95
2018-08-23T14:45:38.810Z,22.52
2018-08-23T14:48:20.405Z,23.95
2018-08-23T14:50:54.688Z,25.37
2018-08-23T14:53:33.280Z,24.90
2018-08-23T14:56:20.666Z,22.07
2018-08-23T14:58:49.586Z,22.50
2018-08-23T15:01:18.479Z,21.23
2018-08-23T15:03:47.347Z,20.52
2018-08-23T15:06:16.249Z,19.65
2018-08-23T15:08:45.119Z,17.82
2018-08-23T15:11:14.116Z,16.65
2018-08-23T15:13:43.137Z,18.10
2018-08-23T15:16:12.007Z,16.93
2018-08-23T15:18:40.937Z,16.25
2018-08-23T15:21:09.880Z,14.53
2018-08-23T15:23:38.778Z,14.98
2018-08-23T15:26:07.787Z,16.73
2018-08-23T15:28:36.613Z,15.20
2018-08-23T15:31:05.650Z,15.10
2018-08-23T15:33:37.316Z,13.80
2018-08-23T15:36:06.513Z,13.78
2018-08-23T15:38:43.568Z,13.95
2018-08-23T15:41:12.552Z,13.62
2018-08-23T15:43:41.467Z,16.40
2018-08-23T15:46:10.364Z,15.78
2018-08-23T15:48:39.362Z,14.18
2018-08-23T15:51:08.249Z,15.35
2018-08-23T15:53:37.129Z,12.78
2018-08-23T15:56:06.370Z,14.47
2018-08-23T15:58:35.516Z,14.98
2018-08-23T16:01:06.144Z,14.38
2018-08-23T16:03:34.839Z,16.50
2018-08-23T16:06:03.727Z,14.20
2018-08-23T16:08:50.730Z,13.50
2018-08-23T16:11:21.567Z,12.82
2018-08-23T16:13:50.490Z,12.47
2018-08-23T16:16:37.204Z,12.47
2018-08-23T16:19:12.426Z,11.85
2018-08-23T16:21:41.796Z,13.05
2018-08-23T16:24:10.740Z,11.43
2018-08-23T16:26:57.511Z,13.48
2018-08-23T16:29:26.416Z,12.13
2018-08-23T16:31:55.405Z,13.40
2018-08-23T16:34:24.221Z,11.85
2018-08-23T16:36:53.189Z,12.28
2018-08-23T16:39:22.070Z,12.47
2018-08-23T16:41:50.967Z,12.07
2018-08-23T16:44:19.864Z,11.45
2018-08-23T16:46:48.822Z,11.60
2018-08-23T16:49:17.752Z,10.48
2018-08-23T16:51:46.649Z,7.97
2018-08-23T16:54:15.624Z,7.55
2018-08-23T16:56:44.462Z,8.98
2018-08-23T16:59:13.299Z,7.97
2018-08-23T17:01:44.643Z,8.95
2018-08-23T17:04:13.592Z,7.33
2018-08-23T17:06:42.404Z,6.85
2018-08-23T17:09:11.530Z,9.05
2018-08-23T17:11:40.454Z,6.97
2018-08-23T17:14:09.358Z,7.60
2018-08-23T17:16:56.223Z,6.78
2018-08-23T17:19:28.293Z,8.08
2018-08-23T17:21:57.485Z,6.17
2018-08-23T17:24:26.490Z,6.30
2018-08-23T17:26:55.387Z,5.67
2018-08-23T17:29:24.369Z,5.80
2018-08-23T17:31:55.918Z,6.17
2018-08-23T17:34:24.886Z,7.12
2018-08-23T17:36:56.301Z,6.62
2018-08-23T17:39:22.937Z,8.65
2018-08-23T17:41:51.770Z,5.53
2018-08-23T17:44:22.498Z,6.75
2018-08-23T17:46:49.857Z,6.00
2018-08-23T17:49:18.727Z,5.28
2018-08-23T17:51:47.588Z,7.83
2018-08-23T17:54:16.525Z,6.10
2018-08-23T17:56:45.424Z,6.10
2018-08-23T17:59:14.352Z,5.40
2018-08-23T18:01:43.325Z,6.10
2018-08-23T18:04:12.341Z,6.42
2018-08-23T18:06:41.378Z,4.87
2018-08-23T18:09:12.022Z,4.85
2018-08-23T18:11:41.007Z,8.00
2018-08-23T18:14:10.112Z,4.60
2018-08-23T18:16:56.782Z,5.33
2018-08-23T18:19:25.677Z,6.17
2018-08-23T18:21:55.367Z,5.53
2018-08-23T18:24:24.272Z,4.90
2018-08-23T18:26:53.165Z,5.87
2018-08-23T18:29:22.096Z,4.40
2018-08-23T18:31:51.079Z,4.22
2018-08-23T18:34:19.982Z,5.85
2018-08-23T18:36:50.660Z,4.65
2018-08-23T18:39:19.634Z,5.58
2018-08-23T18:41:48.526Z,5.92
2018-08-23T18:44:17.420Z,4.47
2018-08-23T18:46:46.385Z,5.28
2018-08-23T18:49:17.064Z,4.22
2018-08-23T18:51:44.118Z,6.35
2018-08-23T18:54:13.093Z,5.10
2018-08-23T18:56:42.050Z,4.50
2018-08-23T18:59:12.993Z,7.33
2018-08-23T19:01:39.781Z,7.20
2018-08-23T19:04:08.690Z,4.70
2018-08-23T19:06:40.105Z,5.05
2018-08-23T19:09:11.618Z,5.62
2018-08-23T19:11:40.494Z,6.17
2018-08-23T19:14:09.444Z,8.48
2018-08-23T19:16:55.966Z,7.40
2018-08-23T19:19:24.855Z,6.50
2018-08-23T19:21:53.793Z,8.40
2018-08-23T19:24:22.653Z,6.05
2018-08-23T19:26:51.635Z,8.00
2018-08-23T19:29:20.510Z,6.47
2018-08-23T19:31:49.507Z,6.90
2018-08-23T19:34:18.444Z,6.03
2018-08-23T19:36:47.380Z,6.33
2018-08-23T19:39:16.286Z,7.60
2018-08-23T19:41:45.281Z,6.37
2018-08-23T19:44:14.334Z,6.05
2018-08-23T19:47:00.896Z,5.22
2018-08-23T19:49:47.699Z,6.85
2018-08-23T19:52:16.601Z,8.05
2018-08-23T19:54:45.504Z,6.80
2018-08-23T19:57:14.588Z,7.80
2018-08-23T19:59:43.466Z,8.00
2018-08-23T20:02:12.481Z,9.83
2018-08-23T20:04:42.394Z,8.23
2018-08-23T20:07:12.077Z,7.05
2018-08-23T20:09:41.186Z,5.50
2018-08-23T20:12:10.730Z,4.97
2018-08-23T20:14:39.656Z,5.87
2018-08-23T20:17:10.895Z,14.70
2018-08-23T20:19:39.825Z,20.32
2018-08-23T20:22:09.197Z,8.73
2018-08-23T20:24:38.124Z,12.50
2018-08-23T20:27:07.041Z,9.03
2018-08-23T20:29:35.936Z,8.17
2018-08-23T20:32:04.781Z,8.43
2018-08-23T20:34:33.679Z,8.40
2018-08-23T20:37:02.657Z,10.60
2018-08-23T20:39:31.654Z,8.37
2018-08-23T20:42:00.449Z,8.57
2018-08-23T20:44:29.419Z,8.60
2018-08-23T20:46:58.374Z,11.17
2018-08-23T20:49:27.288Z,8.00
2018-08-23T20:51:56.147Z,10.07
2018-08-23T20:54:25.134Z,7.43
2018-08-23T20:56:54.036Z,5.73
2018-08-23T20:59:22.943Z,6.22
2018-08-23T21:01:51.923Z,7.73
2018-08-23T21:04:20.837Z,5.90
2018-08-23T21:06:49.675Z,5.40
2018-08-23T21:09:18.565Z,4.87
2018-08-23T21:11:47.514Z,7.23
2018-08-23T21:14:16.494Z,5.37
2018-08-23T21:16:45.303Z,3.60
2018-08-23T21:19:14.208Z,3.93
2018-08-23T21:21:43.105Z,4.07
2018-08-23T21:24:12.030Z,3.93
2018-08-23T21:26:40.896Z,4.72
2018-08-23T21:29:09.849Z,5.13
2018-08-23T21:31:38.679Z,6.33
2018-08-23T21:34:07.735Z,6.10
2018-08-23T21:36:36.726Z,5.80
2018-08-23T21:39:07.685Z,5.70
2018-08-23T21:41:36.611Z,5.63
2018-08-23T21:44:05.645Z,5.83
2018-08-23T21:46:34.532Z,6.67
2018-08-23T21:49:03.443Z,6.83
2018-08-23T21:51:32.303Z,6.43
2018-08-23T21:54:01.244Z,7.10
2018-08-23T21:56:30.129Z,7.77
2018-08-23T21:58:59.036Z,8.17
2018-08-23T22:01:27.994Z,9.37
2018-08-23T22:03:56.854Z,9.88
2018-08-23T22:06:25.801Z,9.30
2018-08-23T22:08:54.772Z,8.87
2018-08-23T22:12:19.136Z,10.67
2018-08-23T22:14:49.883Z,9.30
2018-08-23T22:17:19.493Z,10.50
2018-08-23T22:19:48.523Z,11.27
2018-08-23T22:22:17.685Z,9.77
2018-08-23T22:24:46.677Z,10.33
2018-08-23T22:27:16.693Z,10.82
2018-08-23T22:29:46.755Z,12.83
2018-08-23T22:32:15.797Z,10.10
2018-08-23T22:34:44.764Z,9.27
2018-08-23T22:37:13.832Z,12.00
2018-08-23T22:39:42.986Z,10.80
2018-08-23T22:42:12.085Z,8.90
2018-08-23T22:44:41.072Z,9.73
2018-08-23T22:47:10.191Z,10.20
2018-08-23T22:49:41.817Z,8.83
2018-08-23T22:52:10.702Z,12.70
2018-08-23T22:54:39.730Z,9.77
2018-08-23T22:57:08.707Z,10.30
2018-08-23T22:59:37.732Z,12.40
2018-08-23T23:02:06.764Z,12.20
2018-08-23T23:04:42.603Z,10.03
2018-08-23T23:07:09.878Z,9.20
2018-08-23T23:09:38.906Z,11.07
2018-08-23T23:12:07.964Z,12.87
2018-08-23T23:14:36.964Z,14.17
2018-08-23T23:17:07.143Z,10.40
2018-08-23T23:19:36.232Z,10.73
2018-08-23T23:22:05.457Z,10.07
2018-08-23T23:24:52.444Z,13.30
2018-08-23T23:27:21.414Z,10.77
2018-08-23T23:29:50.397Z,12.23
2018-08-23T23:32:19.391Z,12.50
2018-08-23T23:34:48.458Z,11.47
2018-08-23T23:37:17.454Z,8.77
2018-08-23T23:39:46.454Z,10.30
2018-08-23T23:42:15.456Z,10.27
2018-08-23T23:44:44.460Z,9.20
2018-08-23T23:47:13.345Z,8.70
2018-08-23T23:49:42.370Z,11.87
2018-08-23T23:52:11.232Z,9.03
2018-08-23T23:54:40.110Z,10.57
2018-08-23T23:57:09.087Z,9.33
2018-08-23T23:59:37.893Z,9.97
